createdAt,value
2022-11-24T15:59:20.200Z,7.46
2022-11-24T16:01:49.498Z,7.60
2022-11-24T16:04:16.173Z,7.66
2022-11-24T16:06:42.449Z,7.76
2022-11-24T16:09:11.395Z,7.71
2022-11-24T16:11:37.655Z,7.60
2022-11-24T16:14:04.412Z,7.42
2022-11-24T16:16:30.753Z,7.29
2022-11-24T16:18:57.033Z,7.25
2022-11-24T16:21:23.317Z,7.23
2022-11-24T16:23:49.611Z,7.41
2022-11-24T16:26:15.888Z,7.46
2022-11-24T16:28:42.760Z,7.64
2022-11-24T16:31:09.113Z,7.80
2022-11-24T16:33:38.509Z,7.67
2022-11-24T16:36:04.866Z,7.62
2022-11-24T16:38:31.136Z,7.41
2022-11-24T16:40:57.435Z,7.41
2022-11-24T16:43:24.434Z,7.53
2022-11-24T16:45:59.917Z,7.58
2022-11-24T16:48:26.247Z,7.60
2022-11-24T16:50:52.604Z,7.77
2022-11-24T16:53:18.888Z,7.82
2022-11-24T16:55:45.176Z,7.66
2022-11-24T16:58:11.455Z,7.72
2022-11-24T17:00:37.740Z,7.51
2022-11-24T17:03:04.028Z,7.35
2022-11-24T17:05:30.295Z,7.15
2022-11-24T17:07:56.639Z,6.85
2022-11-24T17:10:22.917Z,6.90
2022-11-24T17:12:49.206Z,7.28
2022-11-24T17:15:32.209Z,7.52
2022-11-24T17:20:46.344Z,7.80
2022-11-24T17:23:12.620Z,7.79
2022-11-24T17:25:38.877Z,7.68
2022-11-24T17:28:05.151Z,7.77
2022-11-24T17:30:31.451Z,7.71
2022-11-24T17:32:57.728Z,7.60
2022-11-24T17:35:24.001Z,7.37
2022-11-24T17:37:50.281Z,7.20
2022-11-24T17:40:34.310Z,7.33
2022-11-24T17:43:00.714Z,7.25
2022-11-24T17:45:27.566Z,7.18
2022-11-24T17:47:54.165Z,7.14
2022-11-24T17:50:25.368Z,7.32
2022-11-24T17:52:52.259Z,7.35
2022-11-24T17:55:18.566Z,7.55
2022-11-24T17:57:44.851Z,7.58
2022-11-24T18:00:11.495Z,7.70
2022-11-24T18:02:38.453Z,7.70
2022-11-24T18:05:04.936Z,7.85
2022-11-24T18:07:31.241Z,7.98
2022-11-24T18:09:57.687Z,8.05
2022-11-24T18:12:24.024Z,8.01
2022-11-24T18:14:50.364Z,7.81
2022-11-24T18:17:16.663Z,7.89
2022-11-24T18:19:42.930Z,7.77
2022-11-24T18:22:09.192Z,7.84
2022-11-24T18:24:35.486Z,7.84
2022-11-24T18:27:01.752Z,7.72
2022-11-24T18:29:28.015Z,7.56
2022-11-24T18:31:54.417Z,7.47
2022-11-24T18:34:20.752Z,7.56
2022-11-24T18:36:50.681Z,7.76
2022-11-24T18:39:18.077Z,7.64
2022-11-24T18:41:44.748Z,7.69
2022-11-24T18:44:11.039Z,7.72
2022-11-24T18:46:37.580Z,7.67
2022-11-24T18:49:03.997Z,7.69
2022-11-24T18:51:30.283Z,7.63
2022-11-24T18:53:59.324Z,7.62
2022-11-24T18:56:25.698Z,7.66
2022-11-24T18:58:52.362Z,7.72
2022-11-24T19:01:19.498Z,7.81
2022-11-24T19:03:48.605Z,7.68
2022-11-24T19:06:19.338Z,7.49
2022-11-24T19:08:45.647Z,7.44
2022-11-24T19:11:24.900Z,7.18
2022-11-24T19:13:51.228Z,6.98
2022-11-24T19:16:18.091Z,7.09
2022-11-24T19:18:47.655Z,7.29
2022-11-24T19:21:18.665Z,7.36
2022-11-24T19:23:45.098Z,7.47
2022-11-24T19:26:11.429Z,7.53
2022-11-24T19:28:37.706Z,7.63
2022-11-24T19:31:04.584Z,7.63
2022-11-24T19:33:30.904Z,7.65
2022-11-24T19:36:02.238Z,7.62
2022-11-24T19:38:30.156Z,7.67
2022-11-24T19:41:00.578Z,7.70
2022-11-24T19:43:26.855Z,7.50
2022-11-24T19:45:53.177Z,7.50
2022-11-24T19:48:19.506Z,7.50
2022-11-24T19:50:45.779Z,7.55
2022-11-24T19:53:12.057Z,7.68
2022-11-24T19:55:38.329Z,7.70
2022-11-24T19:58:04.619Z,7.71
2022-11-24T20:00:32.233Z,7.66
2022-11-24T20:02:58.720Z,7.64
2022-11-24T20:05:25.082Z,7.68
2022-11-24T20:07:51.385Z,7.82
2022-11-24T20:10:17.700Z,7.99
2022-11-24T20:12:43.977Z,7.92
2022-11-24T20:15:10.256Z,7.86
2022-11-24T20:17:36.549Z,7.91
2022-11-24T20:20:02.856Z,7.88
2022-11-24T20:22:29.564Z,7.86
2022-11-24T20:24:55.904Z,7.94
2022-11-24T20:27:22.203Z,7.89
2022-11-24T20:29:48.485Z,7.83
2022-11-24T20:32:19.355Z,7.72
2022-11-24T20:34:45.788Z,7.72
2022-11-24T20:37:13.505Z,7.83
2022-11-24T20:39:39.826Z,7.65
2022-11-24T20:42:06.136Z,7.71
2022-11-24T20:44:32.431Z,7.77
2022-11-24T20:47:00.199Z,7.74
2022-11-24T20:49:26.492Z,7.78
2022-11-24T20:51:57.115Z,7.80
2022-11-24T20:54:23.443Z,7.69
2022-11-24T20:56:49.751Z,7.41
2022-11-24T20:59:17.172Z,7.42
2022-11-24T21:01:43.849Z,7.59
2022-11-24T21:04:10.858Z,7.68
2022-11-24T21:06:37.131Z,7.78
2022-11-24T21:09:04.350Z,7.85
2022-11-24T21:11:30.879Z,7.90
2022-11-24T21:13:57.210Z,7.98
2022-11-24T21:16:24.224Z,7.96
2022-11-24T21:18:51.268Z,7.95
2022-11-24T21:21:17.745Z,7.82
2022-11-24T21:23:46.741Z,7.80
2022-11-24T21:26:16.819Z,7.79
2022-11-24T21:28:43.855Z,7.90
2022-11-24T21:31:11.268Z,7.92
2022-11-24T21:33:45.376Z,7.90
2022-11-24T21:36:12.052Z,7.90
2022-11-24T21:38:38.333Z,7.91
2022-11-24T21:41:05.455Z,7.97
2022-11-24T21:43:31.752Z,8.05
2022-11-24T21:46:04.050Z,7.74
2022-11-24T21:48:30.360Z,7.66
2022-11-24T21:51:00.201Z,7.64
2022-11-24T21:53:26.672Z,7.64
2022-11-24T21:55:59.431Z,7.52
2022-11-24T21:58:25.812Z,7.57
2022-11-24T22:00:52.238Z,7.65
2022-11-24T22:03:18.686Z,7.79
2022-11-24T22:05:54.517Z,7.84
2022-11-24T22:08:21.159Z,7.85
2022-11-24T22:10:47.529Z,7.88
2022-11-24T22:13:13.816Z,7.94
2022-11-24T22:15:40.120Z,7.82
2022-11-24T22:18:06.467Z,7.72
2022-11-24T22:20:32.748Z,7.67
2022-11-24T22:22:59.040Z,7.81
2022-11-24T22:25:25.305Z,7.88
2022-11-24T22:27:51.578Z,7.92
2022-11-24T22:30:17.853Z,7.94
2022-11-24T22:32:44.319Z,7.89
2022-11-24T22:35:10.598Z,7.93
2022-11-24T22:37:36.881Z,7.62
2022-11-24T22:40:03.271Z,7.34
2022-11-24T22:42:29.593Z,7.32
2022-11-24T22:44:55.856Z,7.25
2022-11-24T22:47:22.120Z,7.33
2022-11-24T22:49:48.396Z,7.64
2022-11-24T22:52:14.698Z,7.67
2022-11-24T22:54:41.192Z,7.67
2022-11-24T22:57:07.514Z,7.81
2022-11-24T22:59:33.790Z,7.75
2022-11-24T23:02:00.098Z,7.39
2022-11-24T23:04:26.523Z,7.00
2022-11-24T23:06:52.968Z,6.72
2022-11-24T23:09:19.236Z,6.80
2022-11-24T23:11:45.508Z,6.77
2022-11-24T23:14:12.940Z,6.77
2022-11-24T23:16:39.340Z,6.84
2022-11-24T23:19:05.660Z,6.92
2022-11-24T23:21:32.599Z,6.81
2022-11-24T23:23:59.408Z,6.79
2022-11-24T23:26:26.601Z,6.89
2022-11-24T23:28:52.875Z,7.08
2022-11-24T23:31:20.722Z,7.36
2022-11-24T23:33:47.284Z,7.38
2022-11-24T23:36:14.264Z,7.63
2022-11-24T23:38:40.591Z,7.75
2022-11-24T23:41:07.531Z,7.83
2022-11-24T23:43:33.971Z,7.91
2022-11-24T23:46:03.539Z,7.93
2022-11-24T23:48:29.858Z,7.97
2022-11-24T23:50:56.151Z,7.94
2022-11-24T23:53:22.496Z,7.99
2022-11-24T23:55:52.827Z,8.04
2022-11-24T23:58:19.098Z,7.97
